createdAt,value
2022-08-21T00:00:28.306Z,13.48
2022-08-21T00:02:57.917Z,13.48
2022-08-21T00:05:26.084Z,13.46
2022-08-21T00:07:54.880Z,13.33
2022-08-21T00:10:21.971Z,13.40
2022-08-21T00:12:49.341Z,13.32
2022-08-21T00:15:19.374Z,13.31
2022-08-21T00:17:47.253Z,13.26
2022-08-21T00:20:16.235Z,13.23
2022-08-21T00:22:43.500Z,13.21
2022-08-21T00:25:12.515Z,13.11
2022-08-21T00:27:39.725Z,13.17
2022-08-21T00:30:08.206Z,13.12
2022-08-21T00:32:38.631Z,13.10
2022-08-21T00:35:07.431Z,13.03
2022-08-21T00:37:35.373Z,13.00
2022-08-21T00:40:02.465Z,12.99
2022-08-21T00:42:30.945Z,13.02
2022-08-21T00:44:57.592Z,12.86
2022-08-21T00:47:24.184Z,12.92
2022-08-21T00:49:50.894Z,12.91
2022-08-21T00:52:22.829Z,12.90
2022-08-21T00:54:50.806Z,12.88
2022-08-21T00:57:24.208Z,12.86
2022-08-21T00:59:56.951Z,12.82
2022-08-21T01:02:23.628Z,12.81
2022-08-21T01:04:50.308Z,12.80
2022-08-21T01:07:17.811Z,12.79
2022-08-21T01:09:47.797Z,12.76
2022-08-21T01:12:15.737Z,12.67
2022-08-21T01:14:43.304Z,12.70
2022-08-21T01:17:12.430Z,12.67
2022-08-21T01:19:39.534Z,12.51
2022-08-21T01:22:07.841Z,12.56
2022-08-21T01:24:34.686Z,12.56
2022-08-21T01:27:01.781Z,12.55
2022-08-21T01:29:36.794Z,12.54
2022-08-21T01:32:08.303Z,12.50
2022-08-21T01:34:37.327Z,12.38
2022-08-21T01:37:03.963Z,12.43
2022-08-21T01:39:32.484Z,12.41
2022-08-21T01:41:59.130Z,12.38
2022-08-21T01:44:26.810Z,12.27
2022-08-21T01:46:53.590Z,12.34
2022-08-21T01:49:21.026Z,12.23
2022-08-21T01:51:47.932Z,12.27
2022-08-21T01:54:14.726Z,12.24
2022-08-21T01:56:46.842Z,12.21
2022-08-21T01:59:13.513Z,12.19
2022-08-21T02:01:40.081Z,12.03
2022-08-21T02:04:07.393Z,12.15
2022-08-21T02:06:34.509Z,12.13
2022-08-21T02:09:01.372Z,12.03
2022-08-21T02:11:27.930Z,12.09
2022-08-21T02:13:55.913Z,12.03
2022-08-21T02:16:22.563Z,12.13
2022-08-21T02:18:49.202Z,12.16
2022-08-21T02:21:15.778Z,12.15
2022-08-21T02:23:42.410Z,12.06
2022-08-21T02:26:09.861Z,11.66
2022-08-21T02:28:37.418Z,12.03
2022-08-21T02:31:06.509Z,11.92
2022-08-21T02:33:33.203Z,11.96
2022-08-21T02:35:59.853Z,11.83
2022-08-21T02:38:28.819Z,11.81
2022-08-21T02:40:56.241Z,11.92
2022-08-21T02:43:25.386Z,11.90
2022-08-21T02:45:52.906Z,11.94
2022-08-21T02:48:23.604Z,11.81
2022-08-21T02:50:55.220Z,11.87
2022-08-21T02:53:21.948Z,11.83
2022-08-21T02:55:51.061Z,11.81
2022-08-21T02:58:25.710Z,11.70
2022-08-21T03:00:52.810Z,11.73
2022-08-21T03:03:20.985Z,11.70
2022-08-21T03:05:48.593Z,11.67
2022-08-21T03:08:16.127Z,11.65
2022-08-21T03:10:45.934Z,11.64
2022-08-21T03:13:13.325Z,11.48
2022-08-21T03:15:40.276Z,11.52
2022-08-21T03:18:07.416Z,11.53
2022-08-21T03:20:37.249Z,11.51
2022-08-21T03:23:06.172Z,11.47
2022-08-21T03:25:42.068Z,11.40
2022-08-21T03:28:13.135Z,11.40
2022-08-21T03:30:40.284Z,11.37
2022-08-21T03:33:06.835Z,11.31
2022-08-21T03:35:34.830Z,11.27
2022-08-21T03:38:01.409Z,11.37
2022-08-21T03:40:28.491Z,11.23
2022-08-21T03:42:55.087Z,11.33
2022-08-21T03:45:22.002Z,11.29
2022-08-21T03:47:53.674Z,11.24
2022-08-21T03:50:20.307Z,11.18
2022-08-21T03:52:48.219Z,11.06
2022-08-21T03:55:14.906Z,11.16
2022-08-21T03:57:41.515Z,11.13
2022-08-21T04:00:09.982Z,11.09
2022-08-21T04:02:36.579Z,10.95
2022-08-21T04:05:04.031Z,10.97
2022-08-21T04:07:30.565Z,11.06
2022-08-21T04:09:58.606Z,11.05
2022-08-21T04:12:25.179Z,11.03
2022-08-21T04:14:52.055Z,11.02
2022-08-21T04:17:18.814Z,10.94
2022-08-21T04:19:46.989Z,11.00
2022-08-21T04:22:16.365Z,10.97
2022-08-21T04:24:43.072Z,10.93
2022-08-21T04:27:11.059Z,10.90
2022-08-21T04:29:40.064Z,10.88
2022-08-21T04:32:07.143Z,10.89
2022-08-21T04:34:33.885Z,10.89
2022-08-21T04:37:00.557Z,10.84
2022-08-21T04:39:29.668Z,10.90
2022-08-21T04:41:56.695Z,10.88
2022-08-21T04:44:24.590Z,10.88
2022-08-21T04:46:51.223Z,10.86
2022-08-21T04:49:17.805Z,10.87
2022-08-21T04:51:45.709Z,10.78
2022-08-21T04:54:17.886Z,10.88
2022-08-21T04:56:47.917Z,10.87
2022-08-21T04:59:18.442Z,10.84
2022-08-21T05:01:46.804Z,10.92
2022-08-21T05:04:17.319Z,10.95
2022-08-21T05:06:47.375Z,10.99
2022-08-21T05:09:17.279Z,11.01
2022-08-21T05:11:44.572Z,10.84
2022-08-21T05:14:11.628Z,11.04
2022-08-21T05:16:38.541Z,11.11
2022-08-21T05:19:07.557Z,11.16
2022-08-21T05:21:34.515Z,11.15
2022-08-21T05:24:01.120Z,11.25
2022-08-21T05:26:28.309Z,11.30
2022-08-21T05:28:54.878Z,11.35
2022-08-21T05:31:22.824Z,11.41
2022-08-21T05:33:49.384Z,11.48
2022-08-21T05:36:20.026Z,11.57
2022-08-21T05:38:46.945Z,11.66
2022-08-21T05:41:13.699Z,11.71
2022-08-21T05:43:40.339Z,11.78
2022-08-21T05:46:08.194Z,11.82
2022-08-21T05:48:36.076Z,11.91
2022-08-21T05:51:06.426Z,11.84
2022-08-21T05:53:34.395Z,12.02
2022-08-21T05:56:00.961Z,12.10
2022-08-21T05:58:27.531Z,12.20
2022-08-21T06:00:54.089Z,12.26
2022-08-21T06:03:24.562Z,12.37
2022-08-21T06:05:51.571Z,12.33
2022-08-21T06:08:19.009Z,12.58
2022-08-21T06:10:48.992Z,12.67
2022-08-21T06:13:17.728Z,12.76
2022-08-21T06:15:44.421Z,12.72
2022-08-21T06:18:11.859Z,12.94
2022-08-21T06:20:38.938Z,13.01
2022-08-21T06:23:05.927Z,13.09
2022-08-21T06:25:33.293Z,13.20
2022-08-21T06:28:06.255Z,13.16
2022-08-21T06:30:33.231Z,13.36
2022-08-21T06:33:00.470Z,13.45
2022-08-21T06:35:27.680Z,13.58
2022-08-21T06:37:54.183Z,13.54
2022-08-21T06:40:20.818Z,13.84
2022-08-21T06:42:48.249Z,13.93
2022-08-21T06:45:17.086Z,14.06
2022-08-21T06:47:43.621Z,14.18
2022-08-21T06:50:10.321Z,14.27
2022-08-21T06:52:37.608Z,14.26
2022-08-21T06:55:06.724Z,14.50
2022-08-21T06:57:33.943Z,14.59
2022-08-21T07:00:00.572Z,14.79
2022-08-21T07:02:28.455Z,14.92
2022-08-21T07:04:55.116Z,15.06
2022-08-21T07:07:21.669Z,15.15
2022-08-21T07:09:48.453Z,15.28
2022-08-21T07:12:15.013Z,15.43
2022-08-21T07:14:41.653Z,15.57
2022-08-21T07:17:08.191Z,15.71
2022-08-21T07:19:36.430Z,15.89
2022-08-21T07:22:03.496Z,16.03
2022-08-21T07:24:30.519Z,16.16
2022-08-21T07:26:57.097Z,16.27
2022-08-21T07:29:23.727Z,16.44
2022-08-21T07:31:50.317Z,16.64
2022-08-21T07:34:17.483Z,16.76
2022-08-21T07:36:45.369Z,16.96
2022-08-21T07:39:12.687Z,17.16
2022-08-21T07:41:39.422Z,17.32
2022-08-21T07:44:06.568Z,17.48
2022-08-21T07:46:33.303Z,17.65
2022-08-21T07:49:00.030Z,17.87
2022-08-21T07:51:28.950Z,18.09
2022-08-21T07:53:58.815Z,18.23
2022-08-21T07:56:25.736Z,18.37
2022-08-21T07:58:52.529Z,18.55
2022-08-21T08:01:19.590Z,18.66
2022-08-21T08:03:46.769Z,18.84
2022-08-21T08:06:13.866Z,18.94
2022-08-21T08:08:41.667Z,19.11
2022-08-21T08:11:10.483Z,19.32
2022-08-21T08:13:40.033Z,19.44
2022-08-21T08:16:07.197Z,19.51
2022-08-21T08:18:33.834Z,19.60
2022-08-21T08:21:00.418Z,19.71
2022-08-21T08:23:26.963Z,19.75
2022-08-21T08:25:53.591Z,19.98
2022-08-21T08:28:21.564Z,20.16
2022-08-21T08:30:48.109Z,20.32
2022-08-21T08:33:15.831Z,20.40
2022-08-21T08:35:43.322Z,20.52
2022-08-21T08:38:09.914Z,20.64
2022-08-21T08:40:43.137Z,20.77
2022-08-21T08:43:10.120Z,20.93
2022-08-21T08:45:46.514Z,21.14
2022-08-21T08:48:20.745Z,21.13
2022-08-21T08:50:50.313Z,21.22
2022-08-21T08:53:20.683Z,21.26
2022-08-21T08:55:49.053Z,21.24
2022-08-21T08:58:21.202Z,21.36
2022-08-21T09:00:51.612Z,21.63
2022-08-21T09:03:18.913Z,21.64
2022-08-21T09:05:48.244Z,21.76
2022-08-21T09:08:24.158Z,21.98
2022-08-21T09:11:01.433Z,21.97
2022-08-21T09:13:40.280Z,22.18
2022-08-21T09:16:16.415Z,22.31
2022-08-21T09:18:55.347Z,22.40
2022-08-21T09:21:29.158Z,22.50
2022-08-21T09:24:01.093Z,22.70
2022-08-21T09:26:32.650Z,22.57
2022-08-21T09:29:00.537Z,22.78
2022-08-21T09:31:31.207Z,22.97
2022-08-21T09:33:59.573Z,23.02
2022-08-21T09:36:34.071Z,22.97
2022-08-21T09:39:00.750Z,23.12
2022-08-21T09:41:29.651Z,23.24
2022-08-21T09:43:56.410Z,23.29
2022-08-21T09:46:25.257Z,23.28
2022-08-21T09:48:54.874Z,23.43
2022-08-21T09:51:24.522Z,23.59
2022-08-21T09:53:54.914Z,23.78
2022-08-21T09:56:28.191Z,23.76
2022-08-21T09:58:54.882Z,23.72
2022-08-21T10:01:24.010Z,23.90
2022-08-21T10:04:04.992Z,23.98
2022-08-21T10:06:31.634Z,24.05
2022-08-21T10:09:06.413Z,24.24
2022-08-21T10:11:34.712Z,24.32
2022-08-21T10:14:14.208Z,24.44
2022-08-21T10:16:52.296Z,24.50
2022-08-21T10:19:30.014Z,24.69
2022-08-21T10:22:03.708Z,24.66
2022-08-21T10:24:34.019Z,24.72
2022-08-21T10:27:12.182Z,24.65
2022-08-21T10:29:48.449Z,24.54
2022-08-21T10:32:30.452Z,24.72
2022-08-21T10:35:07.502Z,24.81
2022-08-21T10:37:46.920Z,24.93
2022-08-21T10:40:21.977Z,24.96
2022-08-21T10:43:02.147Z,24.99
2022-08-21T10:45:42.981Z,25.00
2022-08-21T10:48:16.812Z,25.09
2022-08-21T10:50:51.529Z,25.34
2022-08-21T10:53:37.432Z,25.48
2022-08-21T10:56:15.921Z,25.47
2022-08-21T10:58:50.662Z,25.63
2022-08-21T11:01:23.831Z,25.78
2022-08-21T11:04:06.910Z,25.93
2022-08-21T11:06:40.192Z,25.94
2022-08-21T11:09:14.714Z,25.91
2022-08-21T11:11:59.024Z,26.19
2022-08-21T11:14:40.363Z,26.33
2022-08-21T11:17:22.337Z,26.34
2022-08-21T11:19:54.469Z,26.55
2022-08-21T11:22:27.413Z,26.57
2022-08-21T11:25:01.428Z,26.59
2022-08-21T11:27:33.985Z,26.54
2022-08-21T11:30:02.171Z,26.67
2022-08-21T11:32:53.825Z,26.78
2022-08-21T11:35:32.541Z,26.67
2022-08-21T11:38:16.508Z,26.71
2022-08-21T11:40:53.310Z,26.57
2022-08-21T11:43:28.647Z,26.76
2022-08-21T11:45:58.761Z,26.89
2022-08-21T11:48:38.009Z,26.98
2022-08-21T11:51:10.534Z,27.29
2022-08-21T11:53:50.914Z,27.48
2022-08-21T11:56:26.128Z,27.76
2022-08-21T11:58:57.878Z,27.92
2022-08-21T12:01:31.551Z,27.94
2022-08-21T12:04:02.941Z,27.86
2022-08-21T12:06:31.902Z,28.17
2022-08-21T12:09:02.080Z,28.42
2022-08-21T12:11:30.915Z,28.34
2022-08-21T12:14:01.172Z,28.38
2022-08-21T12:16:32.987Z,28.36
2022-08-21T12:19:08.243Z,28.57
2022-08-21T12:21:50.081Z,28.63
2022-08-21T12:24:32.789Z,28.95
2022-08-21T12:27:02.684Z,28.93
2022-08-21T12:29:31.466Z,29.01
2022-08-21T12:32:00.622Z,29.10
2022-08-21T12:34:37.321Z,29.17
2022-08-21T12:37:15.581Z,29.20
2022-08-21T12:39:47.442Z,29.21
2022-08-21T12:42:19.206Z,29.18
2022-08-21T12:44:51.234Z,29.30
2022-08-21T12:47:27.721Z,29.38
2022-08-21T12:50:02.367Z,29.58
2022-08-21T12:52:38.969Z,29.89
2022-08-21T12:55:11.920Z,29.79
2022-08-21T12:57:41.904Z,29.87
2022-08-21T13:00:12.411Z,29.97
2022-08-21T13:02:44.267Z,30.21
2022-08-21T13:05:14.602Z,30.20
2022-08-21T13:07:46.151Z,30.32
2022-08-21T13:10:21.082Z,30.38
2022-08-21T13:12:48.334Z,30.39
2022-08-21T13:15:15.164Z,30.31
2022-08-21T13:17:48.270Z,30.25
2022-08-21T13:20:22.195Z,30.15
2022-08-21T13:22:48.958Z,30.29
2022-08-21T13:25:18.338Z,30.51
2022-08-21T13:27:58.922Z,30.57
2022-08-21T13:30:25.791Z,30.64
2022-08-21T13:32:56.616Z,30.72
2022-08-21T13:35:26.746Z,30.42
2022-08-21T13:37:55.422Z,30.67
2022-08-21T13:40:27.322Z,30.97
2022-08-21T13:42:54.798Z,31.05
2022-08-21T13:45:26.470Z,30.96
2022-08-21T13:47:54.699Z,30.81
2022-08-21T13:50:24.348Z,30.76
2022-08-21T13:52:58.500Z,31.03
2022-08-21T13:55:35.812Z,31.11
2022-08-21T13:58:04.130Z,31.23
2022-08-21T14:00:32.371Z,31.23
2022-08-21T14:03:05.281Z,31.44
2022-08-21T14:05:34.135Z,31.38
2022-08-21T14:08:05.837Z,31.49
2022-08-21T14:10:37.440Z,31.29
2022-08-21T14:13:06.795Z,31.43
2022-08-21T14:15:35.859Z,31.49
2022-08-21T14:18:13.924Z,31.65
2022-08-21T14:20:41.179Z,31.86
2022-08-21T14:23:07.753Z,31.93
2022-08-21T14:25:43.795Z,31.92
2022-08-21T14:28:27.220Z,32.09
2022-08-21T14:30:57.531Z,32.00
2022-08-21T14:33:27.615Z,31.86
2022-08-21T14:35:54.910Z,31.59
2022-08-21T14:38:23.868Z,31.79
2022-08-21T14:40:54.095Z,31.89
2022-08-21T14:43:21.397Z,32.02
2022-08-21T14:45:48.791Z,31.98
2022-08-21T14:48:15.444Z,31.91
2022-08-21T14:50:42.267Z,31.73
2022-08-21T14:53:10.984Z,31.43
2022-08-21T14:55:39.416Z,31.10
2022-08-21T14:58:08.856Z,30.88
2022-08-21T15:00:35.845Z,30.67
2022-08-21T15:03:03.136Z,30.55
2022-08-21T15:05:33.831Z,30.53
2022-08-21T15:08:01.024Z,30.39
2022-08-21T15:10:27.845Z,30.39
2022-08-21T15:12:54.594Z,30.41
2022-08-21T15:15:22.751Z,30.37
2022-08-21T15:17:49.343Z,30.32
2022-08-21T15:20:16.176Z,30.40
2022-08-21T15:22:47.425Z,30.49
2022-08-21T15:25:14.575Z,30.55
2022-08-21T15:27:41.323Z,30.85
2022-08-21T15:30:08.656Z,31.11
2022-08-21T15:32:36.572Z,31.39
2022-08-21T15:35:04.052Z,31.69
2022-08-21T15:37:30.710Z,31.62
2022-08-21T15:39:57.511Z,31.74
2022-08-21T15:42:26.040Z,31.76
2022-08-21T15:44:53.703Z,31.61
2022-08-21T15:47:23.562Z,31.36
2022-08-21T15:49:51.578Z,30.89
2022-08-21T15:52:20.691Z,30.62
2022-08-21T15:54:47.743Z,30.62
2022-08-21T15:57:18.764Z,30.60
2022-08-21T15:59:49.381Z,30.50
2022-08-21T16:02:19.709Z,30.38
2022-08-21T16:04:46.282Z,30.22
2022-08-21T16:07:14.757Z,30.15
2022-08-21T16:09:41.354Z,29.99
2022-08-21T16:12:10.509Z,29.87
2022-08-21T16:14:37.777Z,29.65
2022-08-21T16:17:05.991Z,29.57
2022-08-21T16:19:33.523Z,29.50
2022-08-21T16:22:00.222Z,29.35
2022-08-21T16:24:28.236Z,29.12
2022-08-21T16:26:57.922Z,28.90
2022-08-21T16:29:29.413Z,28.73
2022-08-21T16:31:56.179Z,28.79
2022-08-21T16:34:22.720Z,28.86
2022-08-21T16:36:49.403Z,28.92
2022-08-21T16:39:15.987Z,28.93
2022-08-21T16:41:43.995Z,29.22
2022-08-21T16:44:11.178Z,29.53
2022-08-21T16:46:40.517Z,29.65
2022-08-21T16:49:07.538Z,29.79
2022-08-21T16:51:34.324Z,29.77
2022-08-21T16:54:01.014Z,29.75
2022-08-21T16:56:27.900Z,29.76
2022-08-21T16:58:58.119Z,29.42
2022-08-21T17:01:28.101Z,29.60
2022-08-21T17:03:54.745Z,29.52
2022-08-21T17:06:23.341Z,29.47
2022-08-21T17:08:55.673Z,29.27
2022-08-21T17:11:36.657Z,29.09
2022-08-21T17:14:07.940Z,28.99
2022-08-21T17:16:35.147Z,28.90
2022-08-21T17:19:01.723Z,28.81
2022-08-21T17:21:28.277Z,28.74
2022-08-21T17:23:54.848Z,28.66
2022-08-21T17:26:21.402Z,28.61
2022-08-21T17:28:50.907Z,28.47
2022-08-21T17:31:21.097Z,28.37
2022-08-21T17:33:51.142Z,28.28
2022-08-21T17:36:18.366Z,28.19
2022-08-21T17:38:45.022Z,28.03
2022-08-21T17:41:12.317Z,28.02
2022-08-21T17:43:39.729Z,27.90
2022-08-21T17:46:07.239Z,27.75
2022-08-21T17:48:35.274Z,27.59
2022-08-21T17:51:03.581Z,27.56
2022-08-21T17:53:30.179Z,27.46
2022-08-21T17:55:56.975Z,27.41
2022-08-21T17:58:23.712Z,27.17
2022-08-21T18:00:50.391Z,27.12
2022-08-21T18:03:21.457Z,27.01
2022-08-21T18:05:51.050Z,26.88
2022-08-21T18:08:18.078Z,26.75
2022-08-21T18:10:48.136Z,26.53
2022-08-21T18:13:20.893Z,26.45
2022-08-21T18:15:51.100Z,26.31
2022-08-21T18:18:17.993Z,26.15
2022-08-21T18:20:44.689Z,26.01
2022-08-21T18:23:12.821Z,25.90
2022-08-21T18:25:39.957Z,25.78
2022-08-21T18:28:08.009Z,25.65
2022-08-21T18:30:39.387Z,25.51
2022-08-21T18:33:08.477Z,25.29
2022-08-21T18:35:35.470Z,25.15
2022-08-21T18:38:02.111Z,25.04
2022-08-21T18:40:31.305Z,24.90
2022-08-21T18:43:01.059Z,24.78
2022-08-21T18:45:28.436Z,24.58
2022-08-21T18:47:57.532Z,24.51
2022-08-21T18:50:26.560Z,24.37
2022-08-21T18:52:53.771Z,24.18
2022-08-21T18:55:42.920Z,24.01
2022-08-21T18:58:10.034Z,23.83
2022-08-21T19:00:44.295Z,23.67
2022-08-21T19:03:12.053Z,23.52
2022-08-21T19:05:38.769Z,23.26
2022-08-21T19:08:06.350Z,23.31
2022-08-21T19:10:32.967Z,23.22
2022-08-21T19:13:01.368Z,23.02
2022-08-21T19:18:18.067Z,22.80
2022-08-21T19:20:47.409Z,22.51
2022-08-21T19:23:16.244Z,22.45
2022-08-21T19:25:45.559Z,22.28
2022-08-21T19:28:25.759Z,22.12
2022-08-21T19:30:57.168Z,21.96
2022-08-21T19:33:28.675Z,21.62
2022-08-21T19:35:55.633Z,21.74
2022-08-21T19:38:22.694Z,21.54
2022-08-21T19:40:49.809Z,21.37
2022-08-21T19:43:16.549Z,21.10
2022-08-21T19:45:53.481Z,21.07
2022-08-21T19:48:20.386Z,21.00
2022-08-21T19:50:46.930Z,20.95
2022-08-21T19:53:13.685Z,20.86
2022-08-21T19:55:42.792Z,20.77
2022-08-21T20:01:16.393Z,20.53
2022-08-21T20:03:44.914Z,20.42
2022-08-21T20:06:20.857Z,20.35
2022-08-21T20:08:47.751Z,20.29
2022-08-21T20:11:19.518Z,20.17
2022-08-21T20:13:46.204Z,20.18
2022-08-21T20:16:14.412Z,20.16
2022-08-21T20:18:41.545Z,20.10
2022-08-21T20:21:08.694Z,20.05
2022-08-21T20:23:35.605Z,20.00
2022-08-21T20:26:10.591Z,19.95
2022-08-21T20:28:37.628Z,19.86
2022-08-21T20:31:06.668Z,19.73
2022-08-21T20:33:37.929Z,19.87
2022-08-21T20:36:05.051Z,19.79
2022-08-21T20:38:31.632Z,19.67
2022-08-21T20:40:58.416Z,19.72
2022-08-21T20:43:26.622Z,19.56
2022-08-21T20:45:55.046Z,19.58
2022-08-21T20:48:25.295Z,19.53
2022-08-21T20:51:00.575Z,19.49
2022-08-21T20:56:36.085Z,19.41
2022-08-21T20:59:10.907Z,19.36
2022-08-21T21:01:38.432Z,19.30
2022-08-21T21:04:18.683Z,19.24
2022-08-21T21:06:49.933Z,19.15
2022-08-21T21:09:40.377Z,19.18
2022-08-21T21:12:14.825Z,19.04
2022-08-21T21:14:45.349Z,19.16
2022-08-21T21:17:19.036Z,19.11
2022-08-21T21:20:01.491Z,19.05
2022-08-21T21:22:35.173Z,19.04
2022-08-21T21:25:07.901Z,18.98
2022-08-21T21:27:38.152Z,18.94
2022-08-21T21:30:12.038Z,18.93
2022-08-21T21:32:38.866Z,18.75
2022-08-21T21:35:07.625Z,18.77
2022-08-21T21:37:42.130Z,18.79
2022-08-21T21:40:25.373Z,18.77
2022-08-21T21:43:02.822Z,18.58
2022-08-21T21:45:37.071Z,18.65
2022-08-21T21:48:15.757Z,18.59
2022-08-21T21:50:54.683Z,18.58
2022-08-21T21:53:51.660Z,18.52
2022-08-21T21:56:29.256Z,18.44
2022-08-21T21:59:24.383Z,18.40
2022-08-21T22:02:06.245Z,18.33
2022-08-21T22:04:43.176Z,18.30
2022-08-21T22:07:28.272Z,18.27
2022-08-21T22:10:19.688Z,18.25
2022-08-21T22:13:09.908Z,18.19
2022-08-21T22:15:37.917Z,18.15
2022-08-21T22:18:08.576Z,18.14
2022-08-21T22:20:38.330Z,18.06
2022-08-21T22:23:10.308Z,18.03
2022-08-21T22:25:42.686Z,17.90
2022-08-21T22:28:12.046Z,17.95
2022-08-21T22:30:45.213Z,18.00
2022-08-21T22:33:15.991Z,17.99
2022-08-21T22:35:51.727Z,17.96
2022-08-21T22:38:21.740Z,17.82
2022-08-21T22:40:50.545Z,17.78
2022-08-21T22:43:20.590Z,17.67
2022-08-21T22:45:56.649Z,17.64
2022-08-21T22:48:25.205Z,17.58
2022-08-21T22:50:56.652Z,17.56
2022-08-21T22:53:25.217Z,17.52
2022-08-21T22:55:56.821Z,17.36
2022-08-21T22:58:27.386Z,17.48
2022-08-21T23:00:56.992Z,17.41
2022-08-21T23:03:30.398Z,17.35
2022-08-21T23:05:58.781Z,17.30
2022-08-21T23:08:30.224Z,17.26
2022-08-21T23:11:02.330Z,17.12
2022-08-21T23:13:40.453Z,17.12
2022-08-21T23:16:16.288Z,17.17
2022-08-21T23:18:56.984Z,17.10
2022-08-21T23:21:37.108Z,17.06
2022-08-21T23:24:25.864Z,16.99
2022-08-21T23:30:03.056Z,16.88
2022-08-21T23:32:53.867Z,16.85
2022-08-21T23:35:23.944Z,16.77
2022-08-21T23:37:58.139Z,16.71
2022-08-21T23:40:38.029Z,16.65
2022-08-21T23:43:27.633Z,16.63
2022-08-21T23:46:14.300Z,16.57
2022-08-21T23:48:52.669Z,16.51
2022-08-21T23:51:28.935Z,16.42
2022-08-21T23:54:09.954Z,16.35
2022-08-21T23:56:52.392Z,16.29
2022-08-21T23:59:29.743Z,16.27
